sensor_id;sensor_type;location;lat;lon;timestamp;pressure;altitude;pressure_sealevel;temperature;humidity
55032;BME280;40928;51.076;7.950;2023-05-21T00:01:03;97153.50;;;10.86;100.00
55032;BME280;40928;51.076;7.950;2023-05-21T00:03:32;97150.41;;;10.77;100.00
55032;BME280;40928;51.076;7.950;2023-05-21T00:05:58;97149.81;;;10.75;100.00
55032;BME280;40928;51.076;7.950;2023-05-21T00:08:25;97147.16;;;10.75;100.00
55032;BME280;40928;51.076;7.950;2023-05-21T00:10:51;97144.63;;;10.68;100.00
55032;BME280;40928;51.076;7.950;2023-05-21T00:13:16;97144.28;;;10.64;100.00
55032;BME280;40928;51.076;7.950;2023-05-21T00:15:42;97136.50;;;10.63;100.00
55032;BME280;40928;51.076;7.950;2023-05-21T00:18:07;97127.44;;;10.64;100.00
55032;BME280;40928;51.076;7.950;2023-05-21T00:20:33;97140.78;;;10.64;100.00
55032;BME280;40928;51.076;7.950;2023-05-21T00:23:00;97132.78;;;10.64;100.00
55032;BME280;40928;51.076;7.950;2023-05-21T00:25:29;97129.53;;;10.62;100.00
55032;BME280;40928;51.076;7.950;2023-05-21T00:27:55;97116.09;;;10.57;100.00
55032;BME280;40928;51.076;7.950;2023-05-21T00:30:20;97114.34;;;10.50;100.00
55032;BME280;40928;51.076;7.950;2023-05-21T00:32:46;97108.91;;;10.45;100.00
55032;BME280;40928;51.076;7.950;2023-05-21T00:35:12;97102.28;;;10.48;100.00
55032;BME280;40928;51.076;7.950;2023-05-21T00:37:38;97106.81;;;10.47;100.00
55032;BME280;40928;51.076;7.950;2023-05-21T00:40:06;97107.63;;;10.48;100.00
55032;BME280;40928;51.076;7.950;2023-05-21T00:42:33;97099.97;;;10.40;100.00
55032;BME280;40928;51.076;7.950;2023-05-21T00:45:04;97101.69;;;10.34;100.00
55032;BME280;40928;51.076;7.950;2023-05-21T00:47:30;97096.81;;;10.31;100.00
55032;BME280;40928;51.076;7.950;2023-05-21T00:49:56;97092.53;;;10.30;100.00
55032;BME280;40928;51.076;7.950;2023-05-21T00:52:22;97090.91;;;10.29;100.00
55032;BME280;40928;51.076;7.950;2023-05-21T00:54:51;97097.53;;;10.26;100.00
55032;BME280;40928;51.076;7.950;2023-05-21T00:57:23;97091.28;;;10.20;100.00
55032;BME280;40928;51.076;7.950;2023-05-21T00:59:51;97088.03;;;10.18;100.00
55032;BME280;40928;51.076;7.950;2023-05-21T01:02:17;97088.28;;;10.17;100.00
55032;BME280;40928;51.076;7.950;2023-05-21T01:04:44;97087.44;;;10.16;100.00
55032;BME280;40928;51.076;7.950;2023-05-21T01:07:10;97085.25;;;10.13;100.00
55032;BME280;40928;51.076;7.950;2023-05-21T01:09:35;97085.16;;;10.08;100.00
55032;BME280;40928;51.076;7.950;2023-05-21T01:12:01;97079.69;;;10.03;100.00
55032;BME280;40928;51.076;7.950;2023-05-21T01:14:28;97083.41;;;10.02;100.00
55032;BME280;40928;51.076;7.950;2023-05-21T01:16:56;97081.22;;;9.99;100.00
55032;BME280;40928;51.076;7.950;2023-05-21T01:19:23;97075.28;;;9.97;100.00
55032;BME280;40928;51.076;7.950;2023-05-21T01:21:51;97073.13;;;9.94;100.00
55032;BME280;40928;51.076;7.950;2023-05-21T01:24:18;97066.38;;;9.91;100.00
55032;BME280;40928;51.076;7.950;2023-05-21T01:26:43;97075.41;;;9.90;100.00
55032;BME280;40928;51.076;7.950;2023-05-21T01:29:12;97071.38;;;9.87;100.00
55032;BME280;40928;51.076;7.950;2023-05-21T01:34:25;97066.84;;;9.76;100.00
55032;BME280;40928;51.076;7.950;2023-05-21T01:37:09;97066.72;;;9.71;100.00
55032;BME280;40928;51.076;7.950;2023-05-21T01:39:38;97064.06;;;9.71;100.00
55032;BME280;40928;51.076;7.950;2023-05-21T01:42:09;97062.44;;;9.70;100.00
55032;BME280;40928;51.076;7.950;2023-05-21T01:44:35;97063.72;;;9.67;100.00
55032;BME280;40928;51.076;7.950;2023-05-21T01:47:02;97058.84;;;9.64;100.00
55032;BME280;40928;51.076;7.950;2023-05-21T01:49:29;97066.06;;;9.64;100.00
55032;BME280;40928;51.076;7.950;2023-05-21T01:51:55;97063.59;;;9.62;100.00
55032;BME280;40928;51.076;7.950;2023-05-21T01:54:21;97064.88;;;9.59;100.00
55032;BME280;40928;51.076;7.950;2023-05-21T01:56:48;97058.38;;;9.55;100.00
55032;BME280;40928;51.076;7.950;2023-05-21T01:59:15;97067.06;;;9.51;100.00
55032;BME280;40928;51.076;7.950;2023-05-21T02:01:41;97057.91;;;9.47;100.00
55032;BME280;40928;51.076;7.950;2023-05-21T02:04:07;97063.69;;;9.43;100.00
55032;BME280;40928;51.076;7.950;2023-05-21T02:06:33;97060.47;;;9.41;100.00
55032;BME280;40928;51.076;7.950;2023-05-21T02:09:00;97063.13;;;9.41;100.00
55032;BME280;40928;51.076;7.950;2023-05-21T02:11:26;97066.84;;;9.40;100.00
55032;BME280;40928;51.076;7.950;2023-05-21T02:13:52;97059.88;;;9.39;100.00
55032;BME280;40928;51.076;7.950;2023-05-21T02:16:19;97059.06;;;9.39;100.00
55032;BME280;40928;51.076;7.950;2023-05-21T02:18:46;97059.06;;;9.39;100.00
55032;BME280;40928;51.076;7.950;2023-05-21T02:21:16;97059.31;;;9.37;100.00
55032;BME280;40928;51.076;7.950;2023-05-21T02:23:41;97053.38;;;9.35;100.00
55032;BME280;40928;51.076;7.950;2023-05-21T02:26:07;97052.56;;;9.35;100.00
55032;BME280;40928;51.076;7.950;2023-05-21T02:28:33;97051.19;;;9.32;100.00
55032;BME280;40928;51.076;7.950;2023-05-21T02:31:00;97042.84;;;9.28;100.00
55032;BME280;40928;51.076;7.950;2023-05-21T02:33:25;97047.56;;;9.26;100.00
55032;BME280;40928;51.076;7.950;2023-05-21T02:35:51;97042.94;;;9.22;100.00
55032;BME280;40928;51.076;7.950;2023-05-21T02:38:16;97044.78;;;9.21;100.00
55032;BME280;40928;51.076;7.950;2023-05-21T02:40:48;97049.31;;;9.21;100.00
55032;BME280;40928;51.076;7.950;2023-05-21T02:43:15;97049.75;;;9.18;100.00
55032;BME280;40928;51.076;7.950;2023-05-21T02:45:40;97043.63;;;9.17;100.00
55032;BME280;40928;51.076;7.950;2023-05-21T02:48:07;97044.09;;;9.14;100.00
55032;BME280;40928;51.076;7.950;2023-05-21T02:50:37;97055.34;;;9.16;100.00
55032;BME280;40928;51.076;7.950;2023-05-21T02:53:03;97043.50;;;9.12;100.00
55032;BME280;40928;51.076;7.950;2023-05-21T02:55:29;97048.59;;;9.13;100.00
55032;BME280;40928;51.076;7.950;2023-05-21T02:57:54;97044.88;;;9.14;100.00
55032;BME280;40928;51.076;7.950;2023-05-21T03:00:20;97033.19;;;9.16;100.00
55032;BME280;40928;51.076;7.950;2023-05-21T03:02:46;97036.09;;;9.14;100.00
55032;BME280;40928;51.076;7.950;2023-05-21T03:05:11;97034.22;;;9.14;100.00
55032;BME280;40928;51.076;7.950;2023-05-21T03:07:37;97037.94;;;9.13;100.00
55032;BME280;40928;51.076;7.950;2023-05-21T03:10:03;97033.66;;;9.12;100.00
55032;BME280;40928;51.076;7.950;2023-05-21T03:12:29;97032.84;;;9.12;100.00
55032;BME280;40928;51.076;7.950;2023-05-21T03:14:54;97027.53;;;9.12;100.00
55032;BME280;40928;51.076;7.950;2023-05-21T03:17:20;97029.34;;;9.11;100.00
55032;BME280;40928;51.076;7.950;2023-05-21T03:19:46;97025.66;;;9.12;100.00
55032;BME280;40928;51.076;7.950;2023-05-21T03:22:13;97024.84;;;9.12;100.00
55032;BME280;40928;51.076;7.950;2023-05-21T03:24:39;97021.16;;;9.13;100.00
55032;BME280;40928;51.076;7.950;2023-05-21T03:27:05;97024.84;;;9.12;100.00
55032;BME280;40928;51.076;7.950;2023-05-21T03:29:32;97020.44;;;9.06;100.00
55032;BME280;40928;51.076;7.950;2023-05-21T03:32:00;97030.59;;;8.97;100.00
55032;BME280;40928;51.076;7.950;2023-05-21T03:34:26;97027.00;;;8.91;100.00
55032;BME280;40928;51.076;7.950;2023-05-21T03:36:51;97026.22;;;8.91;100.00
55032;BME280;40928;51.076;7.950;2023-05-21T03:39:18;97030.25;;;8.93;100.00
55032;BME280;40928;51.076;7.950;2023-05-21T03:41:44;97030.03;;;8.95;100.00
55032;BME280;40928;51.076;7.950;2023-05-21T03:44:17;97027.72;;;8.98;100.00
55032;BME280;40928;51.076;7.950;2023-05-21T03:46:53;97028.19;;;8.95;100.00
55032;BME280;40928;51.076;7.950;2023-05-21T03:49:23;97029.22;;;8.94;100.00
55032;BME280;40928;51.076;7.950;2023-05-21T03:51:52;97024.47;;;8.96;100.00
55032;BME280;40928;51.076;7.950;2023-05-21T03:54:19;97025.66;;;9.01;100.00
55032;BME280;40928;51.076;7.950;2023-05-21T03:56:45;97026.78;;;9.05;100.00
55032;BME280;40928;51.076;7.950;2023-05-21T03:59:10;97022.88;;;9.07;100.00
55032;BME280;40928;51.076;7.950;2023-05-21T04:01:36;97029.00;;;9.08;100.00
55032;BME280;40928;51.076;7.950;2023-05-21T04:04:04;97032.25;;;9.10;100.00
55032;BME280;40928;51.076;7.950;2023-05-21T04:06:30;97038.75;;;9.14;100.00
55032;BME280;40928;51.076;7.950;2023-05-21T04:08:56;97027.06;;;9.15;100.00
55032;BME280;40928;51.076;7.950;2023-05-21T04:11:22;97032.16;;;9.17;100.00
55032;BME280;40928;51.076;7.950;2023-05-21T04:13:47;97031.34;;;9.16;100.00
55032;BME280;40928;51.076;7.950;2023-05-21T04:16:13;97034.59;;;9.18;100.00
55032;BME280;40928;51.076;7.950;2023-05-21T04:18:44;97028.22;;;9.19;100.00
55032;BME280;40928;51.076;7.950;2023-05-21T04:21:11;97031.69;;;9.20;100.00
55032;BME280;40928;51.076;7.950;2023-05-21T04:23:36;97035.75;;;9.22;100.00
55032;BME280;40928;51.076;7.950;2023-05-21T04:26:08;97031.00;;;9.24;100.00
55032;BME280;40928;51.076;7.950;2023-05-21T04:28:33;97035.28;;;9.25;100.00
55032;BME280;40928;51.076;7.950;2023-05-21T04:30:59;97032.63;;;9.25;100.00
55032;BME280;40928;51.076;7.950;2023-05-21T04:33:25;97036.47;;;9.29;100.00
55032;BME280;40928;51.076;7.950;2023-05-21T04:35:51;97030.09;;;9.31;100.00
55032;BME280;40928;51.076;7.950;2023-05-21T04:38:17;97030.09;;;9.31;100.00
55032;BME280;40928;51.076;7.950;2023-05-21T04:40:49;97043.41;;;9.31;100.00
55032;BME280;40928;51.076;7.950;2023-05-21T04:43:15;97039.13;;;9.29;100.00
55032;BME280;40928;51.076;7.950;2023-05-21T04:45:43;97044.81;;;9.33;100.00
55032;BME280;40928;51.076;7.950;2023-05-21T04:48:08;97044.09;;;9.38;100.00
55032;BME280;40928;51.076;7.950;2023-05-21T04:50:34;97040.75;;;9.42;100.00
55032;BME280;40928;51.076;7.950;2023-05-21T04:53:00;97037.63;;;9.45;100.00
55032;BME280;40928;51.076;7.950;2023-05-21T04:55:27;97034.75;;;9.47;100.00
55032;BME280;40928;51.076;7.950;2023-05-21T04:57:53;97028.59;;;9.47;100.00
55032;BME280;40928;51.076;7.950;2023-05-21T05:00:19;97029.16;;;9.49;100.00
55032;BME280;40928;51.076;7.950;2023-05-21T05:02:45;97024.66;;;9.49;100.00
55032;BME280;40928;51.076;7.950;2023-05-21T05:05:10;97027.88;;;9.51;100.00
55032;BME280;40928;51.076;7.950;2023-05-21T05:07:36;97027.44;;;9.54;100.00
55032;BME280;40928;51.076;7.950;2023-05-21T05:10:02;97031.25;;;9.58;100.00
55032;BME280;40928;51.076;7.950;2023-05-21T05:12:30;97030.56;;;9.63;100.00
55032;BME280;40928;51.076;7.950;2023-05-21T05:14:56;97030.91;;;9.67;100.00
55032;BME280;40928;51.076;7.950;2023-05-21T05:17:21;97031.47;;;9.69;100.00
55032;BME280;40928;51.076;7.950;2023-05-21T05:19:47;97021.41;;;9.71;100.00
55032;BME280;40928;51.076;7.950;2023-05-21T05:22:12;97026.28;;;9.74;100.00
55032;BME280;40928;51.076;7.950;2023-05-21T05:24:38;97026.41;;;9.79;100.00
55032;BME280;40928;51.076;7.950;2023-05-21T05:27:04;97023.81;;;9.84;100.00
55032;BME280;40928;51.076;7.950;2023-05-21T05:29:29;97028.22;;;9.90;100.00
55032;BME280;40928;51.076;7.950;2023-05-21T05:31:56;97023.56;;;9.98;100.00
55032;BME280;40928;51.076;7.950;2023-05-21T05:34:21;97014.06;;;10.02;100.00
55032;BME280;40928;51.076;7.950;2023-05-21T05:36:47;97002.00;;;9.99;100.00
55032;BME280;40928;51.076;7.950;2023-05-21T05:39:13;97021.22;;;10.13;100.00
55032;BME280;40928;51.076;7.950;2023-05-21T05:41:38;97022.16;;;10.19;100.00
55032;BME280;40928;51.076;7.950;2023-05-21T05:44:04;97025.16;;;10.23;100.00
55032;BME280;40928;51.076;7.950;2023-05-21T05:46:34;97023.38;;;10.28;100.00
55032;BME280;40928;51.076;7.950;2023-05-21T05:49:00;97025.59;;;10.31;100.00
55032;BME280;40928;51.076;7.950;2023-05-21T05:51:25;97016.88;;;10.36;100.00
55032;BME280;40928;51.076;7.950;2023-05-21T05:53:51;97021.63;;;10.46;100.00
55032;BME280;40928;51.076;7.950;2023-05-21T05:56:16;97028.44;;;10.54;100.00
55032;BME280;40928;51.076;7.950;2023-05-21T05:58:42;97022.72;;;10.62;100.00
55032;BME280;40928;51.076;7.950;2023-05-21T06:01:15;97031.16;;;10.71;100.00
55032;BME280;40928;51.076;7.950;2023-05-21T06:03:42;97035.28;;;10.78;100.00
55032;BME280;40928;51.076;7.950;2023-05-21T06:06:10;97035.13;;;10.85;100.00
55032;BME280;40928;51.076;7.950;2023-05-21T06:08:37;97034.19;;;10.91;100.00
55032;BME280;40928;51.076;7.950;2023-05-21T06:11:04;97034.84;;;10.99;100.00
55032;BME280;40928;51.076;7.950;2023-05-21T06:13:30;97035.50;;;11.06;100.00
55032;BME280;40928;51.076;7.950;2023-05-21T06:15:56;97033.50;;;11.13;100.00
55032;BME280;40928;51.076;7.950;2023-05-21T06:18:21;97034.13;;;11.20;100.00
55032;BME280;40928;51.076;7.950;2023-05-21T06:20:47;97038.28;;;11.28;100.00
55032;BME280;40928;51.076;7.950;2023-05-21T06:23:14;97028.47;;;11.34;100.00
55032;BME280;40928;51.076;7.950;2023-05-21T06:25:40;97031.53;;;11.42;100.00
55032;BME280;40928;51.076;7.950;2023-05-21T06:28:07;97030.81;;;11.47;100.00
55032;BME280;40928;51.076;7.950;2023-05-21T06:30:33;97027.47;;;11.57;100.00
55032;BME280;40928;51.076;7.950;2023-05-21T06:32:59;97029.97;;;11.64;100.00
55032;BME280;40928;51.076;7.950;2023-05-21T06:35:25;97026.34;;;11.70;100.00
55032;BME280;40928;51.076;7.950;2023-05-21T06:37:51;97032.00;;;11.73;100.00
55032;BME280;40928;51.076;7.950;2023-05-21T06:40:16;97027.28;;;11.81;100.00
55032;BME280;40928;51.076;7.950;2023-05-21T06:42:44;97021.75;;;11.87;100.00
55032;BME280;40928;51.076;7.950;2023-05-21T06:45:32;97018.97;;;11.99;100.00
55032;BME280;40928;51.076;7.950;2023-05-21T06:48:04;97018.31;;;12.09;100.00
55032;BME280;40928;51.076;7.950;2023-05-21T06:50:29;97007.97;;;12.18;100.00
55032;BME280;40928;51.076;7.950;2023-05-21T06:52:55;97009.75;;;12.29;100.00
55032;BME280;40928;51.076;7.950;2023-05-21T06:55:20;97014.16;;;12.41;100.00
55032;BME280;40928;51.076;7.950;2023-05-21T06:58:08;97014.75;;;12.48;100.00
55032;BME280;40928;51.076;7.950;2023-05-21T07:00:33;97007.91;;;12.57;100.00
55032;BME280;40928;51.076;7.950;2023-05-21T07:02:59;97009.31;;;12.65;100.00
55032;BME280;40928;51.076;7.950;2023-05-21T07:05:25;97010.22;;;12.76;100.00
55032;BME280;40928;51.076;7.950;2023-05-21T07:07:53;97011.38;;;12.85;100.00
55032;BME280;40928;51.076;7.950;2023-05-21T07:10:18;97009.84;;;12.94;100.00
55032;BME280;40928;51.076;7.950;2023-05-21T07:12:45;97005.09;;;13.02;100.00
55032;BME280;40928;51.076;7.950;2023-05-21T07:15:11;97016.41;;;13.09;100.00
55032;BME280;40928;51.076;7.950;2023-05-21T07:17:37;97017.00;;;13.16;100.00
55032;BME280;40928;51.076;7.950;2023-05-21T07:20:03;97015.72;;;13.24;100.00
55032;BME280;40928;51.076;7.950;2023-05-21T07:22:37;97018.25;;;13.36;100.00
55032;BME280;40928;51.076;7.950;2023-05-21T07:25:04;97024.22;;;13.43;100.00
55032;BME280;40928;51.076;7.950;2023-05-21T07:27:30;97019.44;;;13.50;100.00
55032;BME280;40928;51.076;7.950;2023-05-21T07:29:56;97016.28;;;13.59;100.00
55032;BME280;40928;51.076;7.950;2023-05-21T07:32:21;97018.72;;;13.65;100.00
55032;BME280;40928;51.076;7.950;2023-05-21T07:34:47;97025.50;;;13.73;100.00
55032;BME280;40928;51.076;7.950;2023-05-21T07:37:13;97027.16;;;13.79;100.00
55032;BME280;40928;51.076;7.950;2023-05-21T07:39:39;97020.19;;;13.83;100.00
55032;BME280;40928;51.076;7.950;2023-05-21T07:42:05;97023.16;;;13.87;100.00
55032;BME280;40928;51.076;7.950;2023-05-21T07:44:30;97014.09;;;13.93;100.00
55032;BME280;40928;51.076;7.950;2023-05-21T07:46:56;97009.53;;;13.99;100.00
55032;BME280;40928;51.076;7.950;2023-05-21T07:49:22;97008.50;;;14.10;100.00
55032;BME280;40928;51.076;7.950;2023-05-21T07:51:49;97016.09;;;14.24;100.00
55032;BME280;40928;51.076;7.950;2023-05-21T07:54:15;97022.84;;;14.37;100.00
55032;BME280;40928;51.076;7.950;2023-05-21T07:56:40;97018.31;;;14.42;100.00
55032;BME280;40928;51.076;7.950;2023-05-21T07:59:10;97019.66;;;14.45;100.00
55032;BME280;40928;51.076;7.950;2023-05-21T08:01:35;97018.59;;;14.51;100.00
55032;BME280;40928;51.076;7.950;2023-05-21T08:04:02;97019.69;;;14.60;100.00
55032;BME280;40928;51.076;7.950;2023-05-21T08:06:31;97013.78;;;14.64;100.00
55032;BME280;40928;51.076;7.950;2023-05-21T08:08:59;97011.38;;;14.67;100.00
55032;BME280;40928;51.076;7.950;2023-05-21T08:11:27;97017.09;;;14.71;100.00
55032;BME280;40928;51.076;7.950;2023-05-21T08:13:56;97023.28;;;14.76;100.00
55032;BME280;40928;51.076;7.950;2023-05-21T08:16:22;97017.91;;;14.76;100.00
55032;BME280;40928;51.076;7.950;2023-05-21T08:18:49;97019.25;;;14.84;100.00
55032;BME280;40928;51.076;7.950;2023-05-21T08:21:15;97018.16;;;14.90;100.00
55032;BME280;40928;51.076;7.950;2023-05-21T08:23:41;97006.63;;;14.90;100.00
55032;BME280;40928;51.076;7.950;2023-05-21T08:26:07;97011.72;;;14.86;100.00
55032;BME280;40928;51.076;7.950;2023-05-21T08:28:37;97006.09;;;14.93;100.00
55032;BME280;40928;51.076;7.950;2023-05-21T08:31:03;97008.78;;;14.98;100.00
55032;BME280;40928;51.076;7.950;2023-05-21T08:33:34;97012.56;;;15.07;100.00
55032;BME280;40928;51.076;7.950;2023-05-21T08:36:05;97012.00;;;15.16;100.00
55032;BME280;40928;51.076;7.950;2023-05-21T08:38:35;97010.94;;;15.22;100.00
55032;BME280;40928;51.076;7.950;2023-05-21T08:41:13;97016.31;;;15.27;100.00
55032;BME280;40928;51.076;7.950;2023-05-21T08:43:42;97018.47;;;15.35;100.00
55032;BME280;40928;51.076;7.950;2023-05-21T08:46:10;97016.88;;;15.40;100.00
55032;BME280;40928;51.076;7.950;2023-05-21T08:48:38;97011.47;;;15.55;100.00
55032;BME280;40928;51.076;7.950;2023-05-21T08:51:05;97016.28;;;15.63;100.00
55032;BME280;40928;51.076;7.950;2023-05-21T08:53:42;97015.19;;;15.75;100.00
55032;BME280;40928;51.076;7.950;2023-05-21T08:56:11;97012.22;;;15.87;100.00
55032;BME280;40928;51.076;7.950;2023-05-21T08:58:45;97018.69;;;15.96;100.00
55032;BME280;40928;51.076;7.950;2023-05-21T09:01:11;97015.72;;;15.97;100.00
55032;BME280;40928;51.076;7.950;2023-05-21T09:03:39;97012.47;;;15.95;100.00
55032;BME280;40928;51.076;7.950;2023-05-21T09:08:43;97005.47;;;15.94;100.00
55032;BME280;40928;51.076;7.950;2023-05-21T09:11:35;97009.78;;;15.95;100.00
55032;BME280;40928;51.076;7.950;2023-05-21T09:14:02;97014.09;;;16.02;100.00
55032;BME280;40928;51.076;7.950;2023-05-21T09:16:39;97017.56;;;16.07;100.00
55032;BME280;40928;51.076;7.950;2023-05-21T09:19:04;97019.97;;;16.09;100.00
55032;BME280;40928;51.076;7.950;2023-05-21T09:21:32;97018.09;;;16.09;100.00
55032;BME280;40928;51.076;7.950;2023-05-21T09:24:09;97019.72;;;16.10;100.00
55032;BME280;40928;51.076;7.950;2023-05-21T09:26:36;97016.97;;;16.21;100.00
55032;BME280;40928;51.076;7.950;2023-05-21T09:29:04;97018.84;;;16.25;100.00
55032;BME280;40928;51.076;7.950;2023-05-21T09:31:30;97015.59;;;16.34;100.00
55032;BME280;40928;51.076;7.950;2023-05-21T09:33:59;97016.63;;;16.38;100.00
55032;BME280;40928;51.076;7.950;2023-05-21T09:36:25;97019.56;;;16.47;100.00
55032;BME280;40928;51.076;7.950;2023-05-21T09:38:52;97015.22;;;16.51;100.00
55032;BME280;40928;51.076;7.950;2023-05-21T09:41:18;97019.22;;;16.58;100.00
55032;BME280;40928;51.076;7.950;2023-05-21T09:43:46;97015.44;;;16.59;100.00
55032;BME280;40928;51.076;7.950;2023-05-21T09:46:13;97010.84;;;16.65;100.00
55032;BME280;40928;51.076;7.950;2023-05-21T09:48:40;97019.94;;;16.74;100.00
55032;BME280;40928;51.076;7.950;2023-05-21T09:51:12;97010.72;;;16.86;100.00
55032;BME280;40928;51.076;7.950;2023-05-21T09:53:57;97011.50;;;16.97;100.00
55032;BME280;40928;51.076;7.950;2023-05-21T09:56:24;97007.09;;;17.06;100.00
55032;BME280;40928;51.076;7.950;2023-05-21T09:58:53;97015.59;;;17.24;100.00
55032;BME280;40928;51.076;7.950;2023-05-21T10:01:22;97011.16;;;17.38;100.00
55032;BME280;40928;51.076;7.950;2023-05-21T10:03:57;97013.72;;;17.54;100.00
55032;BME280;40928;51.076;7.950;2023-05-21T10:06:25;97011.44;;;17.66;100.00
55032;BME280;40928;51.076;7.950;2023-05-21T10:08:53;96995.13;;;17.76;100.00
55032;BME280;40928;51.076;7.950;2023-05-21T10:11:22;97009.13;;;17.84;100.00
55032;BME280;40928;51.076;7.950;2023-05-21T10:13:57;96997.25;;;17.79;100.00
55032;BME280;40928;51.076;7.950;2023-05-21T10:16:25;97000.19;;;17.83;100.00
55032;BME280;40928;51.076;7.950;2023-05-21T10:18:51;97002.81;;;17.93;100.00
55032;BME280;40928;51.076;7.950;2023-05-21T10:21:20;96993.81;;;18.03;100.00
55032;BME280;40928;51.076;7.950;2023-05-21T10:23:47;96989.84;;;18.20;100.00
55032;BME280;40928;51.076;7.950;2023-05-21T10:26:13;96987.00;;;18.30;100.00
55032;BME280;40928;51.076;7.950;2023-05-21T10:28:38;96991.75;;;18.38;100.00
55032;BME280;40928;51.076;7.950;2023-05-21T10:31:05;96986.44;;;18.52;100.00
55032;BME280;40928;51.076;7.950;2023-05-21T10:33:31;96995.13;;;18.49;100.00
55032;BME280;40928;51.076;7.950;2023-05-21T10:35:58;96987.69;;;18.60;100.00
55032;BME280;40928;51.076;7.950;2023-05-21T10:38:24;96990.91;;;18.62;100.00
55032;BME280;40928;51.076;7.950;2023-05-21T10:40:52;96981.63;;;18.68;100.00
55032;BME280;40928;51.076;7.950;2023-05-21T10:46:17;96977.88;;;18.83;100.00
55032;BME280;40928;51.076;7.950;2023-05-21T10:51:42;96978.19;;;18.82;100.00
55032;BME280;40928;51.076;7.950;2023-05-21T10:59:51;96972.50;;;18.64;100.00
55032;BME280;40928;51.076;7.950;2023-05-21T11:02:18;96977.91;;;18.64;100.00
55032;BME280;40928;51.076;7.950;2023-05-21T11:04:44;96975.47;;;18.63;100.00
55032;BME280;40928;51.076;7.950;2023-05-21T11:07:14;96975.09;;;18.69;100.00
55032;BME280;40928;51.076;7.950;2023-05-21T11:09:39;96970.44;;;18.75;100.00
55032;BME280;40928;51.076;7.950;2023-05-21T11:12:05;96966.69;;;18.90;100.00
55032;BME280;40928;51.076;7.950;2023-05-21T11:14:36;96968.97;;;19.02;100.00
55032;BME280;40928;51.076;7.950;2023-05-21T11:19:41;96965.72;;;19.19;100.00
55032;BME280;40928;51.076;7.950;2023-05-21T11:22:26;96966.34;;;19.30;100.00
55032;BME280;40928;51.076;7.950;2023-05-21T11:24:53;96963.06;;;19.47;100.00
55032;BME280;40928;51.076;7.950;2023-05-21T11:27:39;96962.41;;;19.69;100.00
55032;BME280;40928;51.076;7.950;2023-05-21T11:30:06;96967.56;;;19.85;100.00
55032;BME280;40928;51.076;7.950;2023-05-21T11:32:43;96962.34;;;20.02;100.00
55032;BME280;40928;51.076;7.950;2023-05-21T11:35:26;96967.75;;;20.16;100.00
55032;BME280;40928;51.076;7.950;2023-05-21T11:37:55;96965.31;;;20.29;100.00
55032;BME280;40928;51.076;7.950;2023-05-21T11:40:24;96965.22;;;20.34;99.12
55032;BME280;40928;51.076;7.950;2023-05-21T11:42:52;96964.00;;;20.40;98.44
55032;BME280;40928;51.076;7.950;2023-05-21T11:45:19;96964.00;;;20.40;97.94
55032;BME280;40928;51.076;7.950;2023-05-21T11:47:46;96963.06;;;20.59;97.51
55032;BME280;40928;51.076;7.950;2023-05-21T11:50:13;96964.25;;;20.66;96.16
55032;BME280;40928;51.076;7.950;2023-05-21T11:52:40;96962.72;;;20.74;96.91
55032;BME280;40928;51.076;7.950;2023-05-21T11:55:09;96953.28;;;20.72;96.21
55032;BME280;40928;51.076;7.950;2023-05-21T11:57:36;96957.53;;;20.64;97.67
55032;BME280;40928;51.076;7.950;2023-05-21T12:00:03;96951.78;;;20.65;97.29
55032;BME280;40928;51.076;7.950;2023-05-21T12:02:43;96955.00;;;20.81;99.15
55032;BME280;40928;51.076;7.950;2023-05-21T12:05:09;96950.13;;;20.92;96.45
55032;BME280;40928;51.076;7.950;2023-05-21T12:07:34;96952.13;;;20.87;96.06
55032;BME280;40928;51.076;7.950;2023-05-21T12:10:00;96944.69;;;20.92;96.01
55032;BME280;40928;51.076;7.950;2023-05-21T12:12:26;96940.44;;;21.00;95.35
55032;BME280;40928;51.076;7.950;2023-05-21T12:14:53;96938.63;;;21.18;95.50
55032;BME280;40928;51.076;7.950;2023-05-21T12:17:21;96923.94;;;21.19;95.08
55032;BME280;40928;51.076;7.950;2023-05-21T12:19:49;96938.97;;;21.48;95.03
55032;BME280;40928;51.076;7.950;2023-05-21T12:22:15;96935.91;;;21.50;93.57
55032;BME280;40928;51.076;7.950;2023-05-21T12:24:41;96936.91;;;21.54;94.17
55032;BME280;40928;51.076;7.950;2023-05-21T12:27:08;96927.03;;;21.58;93.85
55032;BME280;40928;51.076;7.950;2023-05-21T12:29:39;96929.69;;;21.81;95.43
55032;BME280;40928;51.076;7.950;2023-05-21T12:32:07;96937.81;;;21.72;92.81
55032;BME280;40928;51.076;7.950;2023-05-21T12:37:25;96920.16;;;21.92;93.10
55032;BME280;40928;51.076;7.950;2023-05-21T12:39:53;96926.88;;;22.03;92.81
55032;BME280;40928;51.076;7.950;2023-05-21T12:42:25;96909.31;;;22.10;92.43
55032;BME280;40928;51.076;7.950;2023-05-21T12:44:52;96921.97;;;22.14;90.96
55032;BME280;40928;51.076;7.950;2023-05-21T12:47:18;96922.59;;;22.20;92.40
55032;BME280;40928;51.076;7.950;2023-05-21T12:49:47;96919.25;;;22.23;91.81
55032;BME280;40928;51.076;7.950;2023-05-21T12:52:14;96909.66;;;22.26;89.07
55032;BME280;40928;51.076;7.950;2023-05-21T12:54:41;96907.91;;;22.30;89.11
55032;BME280;40928;51.076;7.950;2023-05-21T12:57:16;96907.44;;;22.36;88.22
55032;BME280;40928;51.076;7.950;2023-05-21T12:59:54;96915.00;;;22.48;86.24
55032;BME280;40928;51.076;7.950;2023-05-21T13:02:28;96910.66;;;22.74;84.96
55032;BME280;40928;51.076;7.950;2023-05-21T13:05:07;96914.81;;;22.98;84.60
55032;BME280;40928;51.076;7.950;2023-05-21T13:07:35;96903.09;;;22.97;83.04
55032;BME280;40928;51.076;7.950;2023-05-21T13:10:03;96906.78;;;23.01;83.31
55032;BME280;40928;51.076;7.950;2023-05-21T13:12:30;96906.47;;;23.11;82.27
55032;BME280;40928;51.076;7.950;2023-05-21T13:15:00;96906.25;;;23.17;80.36
55032;BME280;40928;51.076;7.950;2023-05-21T13:17:27;96908.50;;;23.32;80.23
55032;BME280;40928;51.076;7.950;2023-05-21T13:22:34;96903.13;;;23.53;79.56